createdAt,value
2023-05-13T00:01:41.469Z,99715.14
2023-05-13T00:04:18.023Z,99715.27
2023-05-13T00:06:49.322Z,99710.27
2023-05-13T00:09:17.554Z,99713.59
2023-05-13T00:11:45.336Z,99714.87
2023-05-13T00:14:13.524Z,99715.98
2023-05-13T00:16:41.603Z,99713.69
2023-05-13T00:19:09.922Z,99714.02
2023-05-13T00:21:38.392Z,99710.25
2023-05-13T00:24:06.486Z,99717.71
2023-05-13T00:26:34.327Z,99720.82
2023-05-13T00:29:02.278Z,99721.27
2023-05-13T00:31:30.845Z,99714.16
2023-05-13T00:33:59.322Z,99717.92
2023-05-13T00:36:27.563Z,99719.23
2023-05-13T00:38:55.487Z,99717.80
2023-05-13T00:41:23.498Z,99716.36
2023-05-13T00:43:56.139Z,99721.54
2023-05-13T00:46:25.238Z,99719.94
2023-05-13T00:48:53.330Z,99724.45
2023-05-13T00:51:21.214Z,99721.42
2023-05-13T00:53:52.438Z,99729.57
2023-05-13T00:56:22.096Z,99729.59
2023-05-13T00:58:50.422Z,99729.70
2023-05-13T01:01:47.855Z,99729.06
2023-05-13T01:04:36.891Z,99735.09
2023-05-13T01:07:21.617Z,99729.16
2023-05-13T01:10:09.625Z,99730.75
2023-05-13T01:12:41.311Z,99729.23
2023-05-13T01:15:14.088Z,99729.36
2023-05-13T01:17:54.369Z,99728.56
2023-05-13T01:20:24.163Z,99726.36
2023-05-13T01:22:52.764Z,99730.11
2023-05-13T01:25:21.370Z,99730.09
2023-05-13T01:27:49.575Z,99728.58
2023-05-13T01:30:17.901Z,99729.96
2023-05-13T01:32:46.309Z,99730.98
2023-05-13T01:35:16.509Z,99733.86
2023-05-13T01:37:45.550Z,99734.02
2023-05-13T01:40:30.531Z,99736.13
2023-05-13T01:43:00.892Z,99733.59
2023-05-13T01:45:30.184Z,99736.95
2023-05-13T01:47:58.579Z,99734.84
2023-05-13T01:50:27.097Z,99733.89
2023-05-13T01:52:55.038Z,99734.64
2023-05-13T01:55:23.133Z,99734.99
2023-05-13T01:57:51.179Z,99735.91
2023-05-13T02:00:19.773Z,99739.80
2023-05-13T02:02:48.747Z,99735.16
2023-05-13T02:05:17.333Z,99736.44
2023-05-13T02:07:45.229Z,99733.41
2023-05-13T02:10:13.214Z,99732.77
2023-05-13T02:12:40.964Z,99733.79
2023-05-13T02:15:09.858Z,99728.92
2023-05-13T02:17:41.045Z,99731.02
2023-05-13T02:20:09.654Z,99730.83
2023-05-13T02:22:37.422Z,99731.69
2023-05-13T02:25:05.694Z,99733.70
2023-05-13T02:27:33.632Z,99735.05
2023-05-13T02:30:01.897Z,99738.82
2023-05-13T02:32:30.410Z,99743.27
2023-05-13T02:35:01.057Z,99741.17
2023-05-13T02:37:28.800Z,99748.77
2023-05-13T02:39:56.589Z,99748.99
2023-05-13T02:42:24.480Z,99746.63
2023-05-13T02:44:52.988Z,99754.09
2023-05-13T02:47:21.928Z,99749.61
2023-05-13T02:49:49.693Z,99747.89
2023-05-13T02:52:17.577Z,99751.56
2023-05-13T02:54:46.035Z,99752.91
2023-05-13T02:57:13.946Z,99757.74
2023-05-13T02:59:42.498Z,99756.34
2023-05-13T03:02:11.136Z,99757.67
2023-05-13T03:04:41.359Z,99756.89
2023-05-13T03:07:10.023Z,99760.48
2023-05-13T03:09:39.447Z,99763.80
2023-05-13T03:12:08.265Z,99761.47
2023-05-13T03:14:37.196Z,99765.34
2023-05-13T03:17:06.271Z,99764.89
2023-05-13T03:19:37.901Z,99765.41
2023-05-13T03:22:06.656Z,99767.05
2023-05-13T03:24:34.384Z,99768.83
2023-05-13T03:27:02.600Z,99773.75
2023-05-13T03:29:31.004Z,99775.38
2023-05-13T03:35:03.225Z,99772.91
2023-05-13T03:37:34.470Z,99771.60
2023-05-13T03:40:02.761Z,99773.64
2023-05-13T03:42:30.895Z,99774.69
2023-05-13T03:44:58.701Z,99776.52
2023-05-13T03:47:26.501Z,99776.48
2023-05-13T03:49:55.029Z,99780.36
2023-05-13T03:52:23.470Z,99778.16
2023-05-13T03:57:36.916Z,99776.50
2023-05-13T04:00:05.610Z,99780.45
2023-05-13T04:02:34.532Z,99782.83
2023-05-13T04:05:02.604Z,99783.42
2023-05-13T04:07:30.325Z,99784.98
2023-05-13T04:09:58.053Z,99783.81
2023-05-13T04:12:25.835Z,99787.46
2023-05-13T04:14:54.286Z,99791.02
2023-05-13T04:17:22.951Z,99789.18
2023-05-13T04:19:53.968Z,99789.45
2023-05-13T04:22:22.122Z,99789.06
2023-05-13T04:24:52.157Z,99792.70
2023-05-13T04:27:19.906Z,99796.83
2023-05-13T04:29:48.061Z,99794.59
2023-05-13T04:32:21.423Z,99796.69
2023-05-13T04:34:49.548Z,99800.48
2023-05-13T04:37:17.914Z,99803.29
2023-05-13T04:39:46.989Z,99801.84
2023-05-13T04:42:16.653Z,99797.89
2023-05-13T04:44:45.199Z,99798.38
2023-05-13T04:47:12.961Z,99797.39
2023-05-13T04:49:40.655Z,99796.27
2023-05-13T04:52:08.863Z,99798.99
2023-05-13T04:54:38.496Z,99797.20
2023-05-13T04:57:07.210Z,99800.38
2023-05-13T04:59:35.729Z,99800.76
2023-05-13T05:02:03.740Z,99798.78
2023-05-13T05:04:31.576Z,99800.64
2023-05-13T05:06:59.443Z,99804.59
2023-05-13T05:09:27.441Z,99803.62
2023-05-13T05:11:55.534Z,99803.30
2023-05-13T05:14:23.764Z,99803.62
2023-05-13T05:16:51.543Z,99805.31
2023-05-13T05:19:24.189Z,99806.23
2023-05-13T05:21:52.378Z,99805.27
2023-05-13T05:24:20.705Z,99806.11
2023-05-13T05:26:48.828Z,99802.77
2023-05-13T05:29:16.799Z,99802.29
2023-05-13T05:31:44.754Z,99804.94
2023-05-13T05:34:12.603Z,99803.23
2023-05-13T05:36:40.450Z,99806.02
2023-05-13T05:39:08.652Z,99803.46
2023-05-13T05:41:36.844Z,99808.45
2023-05-13T05:44:04.805Z,99804.29
2023-05-13T05:46:32.703Z,99808.04
2023-05-13T05:49:00.796Z,99808.83
2023-05-13T05:51:28.557Z,99807.52
2023-05-13T05:53:56.696Z,99807.17
2023-05-13T05:56:24.975Z,99810.14
2023-05-13T05:58:52.910Z,99811.88
2023-05-13T06:01:20.683Z,99809.09
2023-05-13T06:03:48.492Z,99808.76
2023-05-13T06:06:16.309Z,99814.05
2023-05-13T06:08:44.444Z,99815.19
2023-05-13T06:11:12.590Z,99812.89
2023-05-13T06:13:40.332Z,99813.08
2023-05-13T06:16:08.136Z,99814.08
2023-05-13T06:18:35.960Z,99816.92
2023-05-13T06:21:03.884Z,99818.77
2023-05-13T06:23:32.177Z,99817.15
2023-05-13T06:26:00.499Z,99818.33
2023-05-13T06:28:28.280Z,99822.48
2023-05-13T06:30:56.677Z,99820.42
2023-05-13T06:33:24.522Z,99818.16
2023-05-13T06:35:53.474Z,99813.49
2023-05-13T06:38:21.668Z,99810.52
2023-05-13T06:40:49.905Z,99806.73
2023-05-13T06:43:18.230Z,99808.49
2023-05-13T06:45:46.072Z,99802.88
2023-05-13T06:48:14.223Z,99803.48
2023-05-13T06:50:41.983Z,99803.41
2023-05-13T06:53:13.539Z,99803.61
2023-05-13T06:55:42.605Z,99802.93
2023-05-13T06:58:10.871Z,99796.91
2023-05-13T07:00:40.502Z,99794.61
2023-05-13T07:03:08.624Z,99792.04
2023-05-13T07:05:36.985Z,99791.00
2023-05-13T07:08:08.692Z,99792.13
2023-05-13T07:10:37.077Z,99793.33
2023-05-13T07:13:05.086Z,99790.54
2023-05-13T07:15:32.779Z,99788.91
2023-05-13T07:18:00.971Z,99785.30
2023-05-13T07:20:29.295Z,99787.01
2023-05-13T07:22:57.487Z,99781.98
2023-05-13T07:25:25.382Z,99780.77
2023-05-13T07:27:53.056Z,99780.67
2023-05-13T07:30:21.481Z,99782.04
2023-05-13T07:32:51.427Z,99782.84
2023-05-13T07:35:21.202Z,99781.89
2023-05-13T07:37:49.163Z,99787.89
2023-05-13T07:40:17.989Z,99787.75
2023-05-13T07:42:45.741Z,99784.88
2023-05-13T07:45:13.946Z,99782.08
2023-05-13T07:47:44.379Z,99780.54
2023-05-13T07:50:12.715Z,99782.80
2023-05-13T07:52:40.454Z,99781.44
2023-05-13T07:55:09.174Z,99776.98
2023-05-13T07:57:37.359Z,99775.28
2023-05-13T08:00:06.251Z,99766.80
2023-05-13T08:02:35.389Z,99767.80
2023-05-13T08:05:03.430Z,99762.78
2023-05-13T08:07:31.162Z,99759.02
2023-05-13T08:09:58.880Z,99760.55
2023-05-13T08:12:27.093Z,99763.17
2023-05-13T08:18:02.485Z,99771.64
2023-05-13T08:20:30.383Z,99772.69
2023-05-13T08:22:59.068Z,99773.02
2023-05-13T08:25:26.986Z,99764.48
2023-05-13T08:27:54.718Z,99771.29
2023-05-13T08:30:23.082Z,99765.91
2023-05-13T08:32:50.949Z,99771.09
2023-05-13T08:35:19.407Z,99771.90
2023-05-13T08:37:47.382Z,99775.91
2023-05-13T08:40:15.776Z,99769.52
2023-05-13T08:42:47.983Z,99764.45
2023-05-13T08:45:18.954Z,99754.55
2023-05-13T08:47:56.818Z,99762.41
2023-05-13T08:50:25.707Z,99762.05
2023-05-13T08:52:54.206Z,99759.80
2023-05-13T08:55:24.413Z,99761.27
2023-05-13T08:57:53.124Z,99759.34
2023-05-13T09:00:21.865Z,99758.06
2023-05-13T09:02:51.031Z,99753.00
2023-05-13T09:05:20.494Z,99752.14
2023-05-13T09:07:48.867Z,99753.73
2023-05-13T09:10:18.131Z,99744.38
2023-05-13T09:12:51.738Z,99744.96
2023-05-13T09:15:23.139Z,99744.13
2023-05-13T09:17:54.438Z,99737.66
2023-05-13T09:20:25.503Z,99733.73
2023-05-13T09:23:01.110Z,99732.75
2023-05-13T09:25:31.139Z,99737.11
2023-05-13T09:28:01.644Z,99735.86
2023-05-13T09:30:33.209Z,99733.16
2023-05-13T09:33:15.538Z,99734.98
2023-05-13T09:35:54.816Z,99725.09
2023-05-13T09:38:27.828Z,99726.84
2023-05-13T09:40:57.822Z,99729.61
2023-05-13T09:43:27.989Z,99726.80
2023-05-13T09:45:57.520Z,99725.27
2023-05-13T09:48:27.571Z,99729.71
2023-05-13T09:50:58.178Z,99728.59
2023-05-13T09:53:28.164Z,99736.27
2023-05-13T09:55:57.927Z,99730.52
2023-05-13T09:58:28.557Z,99728.65
2023-05-13T10:00:57.404Z,99726.71
2023-05-13T10:03:26.062Z,99729.77
2023-05-13T10:05:55.256Z,99724.48
2023-05-13T10:08:24.462Z,99726.06
2023-05-13T10:10:56.449Z,99722.08
2023-05-13T10:13:25.035Z,99719.08
2023-05-13T10:15:55.481Z,99718.02
2023-05-13T10:18:24.355Z,99717.02
2023-05-13T10:20:55.318Z,99715.36
2023-05-13T10:23:24.638Z,99716.52
2023-05-13T10:25:54.974Z,99717.29
2023-05-13T10:28:25.319Z,99713.80
2023-05-13T10:30:53.127Z,99713.75
2023-05-13T10:33:21.271Z,99711.23
2023-05-13T10:36:27.931Z,99708.22
2023-05-13T10:39:20.609Z,99706.02
2023-05-13T10:41:58.008Z,99711.52
2023-05-13T10:44:26.350Z,99709.63
2023-05-13T10:46:56.849Z,99709.30
2023-05-13T10:49:27.451Z,99712.91
2023-05-13T10:52:05.346Z,99716.32
2023-05-13T10:54:39.606Z,99715.13
2023-05-13T10:57:08.610Z,99716.36
2023-05-13T10:59:37.389Z,99718.18
2023-05-13T11:02:22.414Z,99715.36
2023-05-13T11:05:01.624Z,99715.36
2023-05-13T11:07:29.938Z,99719.63
2023-05-13T11:09:59.774Z,99721.70
2023-05-13T11:12:27.520Z,99721.52
2023-05-13T11:14:58.722Z,99724.52
2023-05-13T11:17:27.098Z,99724.55
2023-05-13T11:19:56.556Z,99724.40
2023-05-13T11:22:24.613Z,99725.36
2023-05-13T11:25:10.029Z,99721.49
2023-05-13T11:27:42.297Z,99724.77
2023-05-13T11:30:27.187Z,99728.34
2023-05-13T11:32:59.639Z,99725.75
2023-05-13T11:35:28.550Z,99725.84
2023-05-13T11:37:59.894Z,99718.16
2023-05-13T11:40:31.610Z,99721.21
2023-05-13T11:43:00.457Z,99723.35
2023-05-13T11:45:30.106Z,99726.32
2023-05-13T11:47:58.375Z,99729.11
2023-05-13T11:50:30.813Z,99725.77
2023-05-13T11:53:01.403Z,99725.90
2023-05-13T11:55:37.281Z,99727.52
2023-05-13T11:58:05.021Z,99728.09
2023-05-13T12:00:34.424Z,99725.76
2023-05-13T12:03:11.962Z,99728.02
2023-05-13T12:05:40.370Z,99729.31
2023-05-13T12:08:11.245Z,99723.48
2023-05-13T12:10:45.521Z,99716.93
2023-05-13T12:13:14.297Z,99715.37
2023-05-13T12:15:42.719Z,99715.08
2023-05-13T12:18:10.998Z,99712.30
2023-05-13T12:20:38.765Z,99709.75
2023-05-13T12:23:06.728Z,99717.05
2023-05-13T12:25:37.985Z,99716.79
2023-05-13T12:28:18.765Z,99719.34
2023-05-13T12:31:16.160Z,99723.05
2023-05-13T12:33:44.663Z,99721.95
2023-05-13T12:36:33.708Z,99720.86
2023-05-13T12:39:07.371Z,99720.63
2023-05-13T12:41:41.694Z,99719.23
2023-05-13T12:44:16.208Z,99729.02
2023-05-13T12:46:51.882Z,99724.40
2023-05-13T12:49:20.295Z,99722.22
2023-05-13T12:51:48.364Z,99721.09
2023-05-13T12:54:16.202Z,99716.88
2023-05-13T12:56:44.592Z,99717.98
2023-05-13T12:59:14.489Z,99714.92
2023-05-13T13:01:43.022Z,99713.73
2023-05-13T13:04:11.739Z,99714.25
2023-05-13T13:06:39.885Z,99708.88
2023-05-13T13:09:07.804Z,99707.08
2023-05-13T13:11:35.626Z,99710.46
2023-05-13T13:14:03.377Z,99705.63
2023-05-13T13:16:32.020Z,99700.89
2023-05-13T13:19:01.922Z,99699.48
2023-05-13T13:21:29.965Z,99692.96
2023-05-13T13:23:57.803Z,99691.27
2023-05-13T13:26:25.672Z,99690.48
2023-05-13T13:28:53.392Z,99689.83
2023-05-13T13:31:22.075Z,99690.13
2023-05-13T13:33:49.805Z,99695.28
2023-05-13T13:36:17.711Z,99696.17
2023-05-13T13:38:45.582Z,99699.89
2023-05-13T13:41:13.287Z,99699.10
2023-05-13T13:43:41.043Z,99694.48
2023-05-13T13:46:09.333Z,99698.84
2023-05-13T13:48:37.099Z,99700.48
2023-05-13T13:51:05.100Z,99699.10
2023-05-13T13:53:32.997Z,99701.04
2023-05-13T13:56:00.771Z,99705.34
2023-05-13T13:58:28.492Z,99707.91
2023-05-13T14:00:56.686Z,99708.02
2023-05-13T14:03:24.713Z,99705.60
2023-05-13T14:05:54.285Z,99703.32
2023-05-13T14:08:22.129Z,99703.55
2023-05-13T14:10:50.345Z,99701.73
2023-05-13T14:13:18.385Z,99706.16
2023-05-13T14:15:46.214Z,99707.38
2023-05-13T14:18:13.946Z,99707.82
2023-05-13T14:20:41.676Z,99703.39
2023-05-13T14:23:09.430Z,99696.56
2023-05-13T14:25:37.175Z,99697.01
2023-05-13T14:28:05.080Z,99698.50
2023-05-13T14:30:32.780Z,99697.83
2023-05-13T14:33:00.947Z,99698.09
2023-05-13T14:35:28.920Z,99699.30
2023-05-13T14:37:57.338Z,99691.21
2023-05-13T14:40:25.121Z,99690.40
2023-05-13T14:42:52.886Z,99693.39
2023-05-13T14:45:20.732Z,99694.45
2023-05-13T14:47:50.272Z,99698.70
2023-05-13T14:50:18.829Z,99700.69
2023-05-13T14:52:46.710Z,99702.06
2023-05-13T14:55:15.042Z,99700.94
2023-05-13T14:57:42.839Z,99703.20
2023-05-13T15:00:11.623Z,99701.61
2023-05-13T15:02:39.513Z,99701.11
2023-05-13T15:05:07.815Z,99705.77
2023-05-13T15:07:35.724Z,99697.40
2023-05-13T15:10:04.185Z,99701.20
2023-05-13T15:12:32.008Z,99700.77
2023-05-13T15:14:59.829Z,99698.59
2023-05-13T15:17:29.683Z,99696.84
2023-05-13T15:19:57.484Z,99701.85
2023-05-13T15:22:25.267Z,99701.09
2023-05-13T15:24:53.528Z,99701.96
2023-05-13T15:27:21.837Z,99703.85
2023-05-13T15:29:49.556Z,99699.24
2023-05-13T15:32:17.193Z,99693.30
2023-05-13T15:34:44.925Z,99692.95
2023-05-13T15:37:13.241Z,99694.89
2023-05-13T15:39:41.085Z,99690.48
2023-05-13T15:42:08.797Z,99685.45
2023-05-13T15:44:36.562Z,99682.11
2023-05-13T15:47:06.230Z,99680.38
2023-05-13T15:49:34.323Z,99686.48
2023-05-13T15:52:07.210Z,99688.60
2023-05-13T15:54:35.878Z,99685.52
2023-05-13T15:57:03.807Z,99689.32
2023-05-13T15:59:31.615Z,99695.11
2023-05-13T16:01:59.377Z,99691.98
2023-05-13T16:04:27.151Z,99688.32
2023-05-13T16:06:55.622Z,99689.83
2023-05-13T16:09:24.011Z,99682.69
2023-05-13T16:11:51.834Z,99680.20
2023-05-13T16:14:19.816Z,99681.83
2023-05-13T16:16:50.812Z,99687.45
2023-05-13T16:19:18.807Z,99687.96
2023-05-13T16:21:47.040Z,99692.01
2023-05-13T16:24:15.489Z,99692.33
2023-05-13T16:26:43.290Z,99689.31
2023-05-13T16:29:11.627Z,99686.21
2023-05-13T16:31:39.593Z,99683.15
2023-05-13T16:34:07.390Z,99685.98
2023-05-13T16:36:35.847Z,99683.88
2023-05-13T16:39:04.484Z,99682.02
2023-05-13T16:41:33.318Z,99685.93
2023-05-13T16:44:01.113Z,99682.48
2023-05-13T16:46:29.051Z,99680.15
2023-05-13T16:49:02.177Z,99686.55
2023-05-13T16:51:30.582Z,99684.45
2023-05-13T16:53:59.059Z,99683.50
2023-05-13T16:56:26.755Z,99681.48
2023-05-13T16:58:58.060Z,99679.51
2023-05-13T17:01:26.219Z,99683.52
2023-05-13T17:03:53.945Z,99684.84
2023-05-13T17:06:22.250Z,99689.48
2023-05-13T17:08:50.686Z,99688.98
2023-05-13T17:11:22.766Z,99692.45
2023-05-13T17:13:50.555Z,99693.04
2023-05-13T17:16:18.313Z,99693.58
2023-05-13T17:18:46.860Z,99689.20
2023-05-13T17:21:15.308Z,99694.19
2023-05-13T17:23:43.117Z,99692.41
2023-05-13T17:26:10.906Z,99693.33
2023-05-13T17:28:40.255Z,99694.21
2023-05-13T17:31:08.674Z,99690.52
2023-05-13T17:33:36.564Z,99686.26
2023-05-13T17:36:04.791Z,99688.20
2023-05-13T17:38:32.944Z,99686.56
2023-05-13T17:41:00.705Z,99687.23
2023-05-13T17:43:28.655Z,99689.84
2023-05-13T17:45:57.062Z,99690.63
2023-05-13T17:48:25.158Z,99692.20
2023-05-13T17:50:53.460Z,99690.86
2023-05-13T17:53:21.389Z,99696.23
2023-05-13T17:55:54.622Z,99692.17
2023-05-13T17:58:22.388Z,99693.70
2023-05-13T18:00:50.766Z,99693.10
2023-05-13T18:03:19.050Z,99691.53
2023-05-13T18:06:01.252Z,99692.48
2023-05-13T18:08:29.114Z,99692.69
2023-05-13T18:10:57.174Z,99690.30
2023-05-13T18:13:25.662Z,99696.69
2023-05-13T18:15:53.985Z,99693.80
2023-05-13T18:18:24.376Z,99693.98
2023-05-13T18:20:52.985Z,99695.64
2023-05-13T18:23:26.124Z,99696.85
2023-05-13T18:26:00.240Z,99702.48
2023-05-13T18:28:33.419Z,99705.69
2023-05-13T18:31:06.554Z,99706.45
2023-05-13T18:33:34.429Z,99710.34
2023-05-13T18:36:05.529Z,99711.92
2023-05-13T18:38:36.223Z,99713.95
2023-05-13T18:41:04.789Z,99717.70
2023-05-13T18:43:38.703Z,99716.95
2023-05-13T18:46:12.276Z,99721.70
2023-05-13T18:48:40.674Z,99722.29
2023-05-13T18:51:08.528Z,99723.31
2023-05-13T18:53:36.502Z,99726.67
2023-05-13T18:56:04.388Z,99729.76
2023-05-13T18:58:32.304Z,99735.03
2023-05-13T19:01:01.249Z,99736.38
2023-05-13T19:03:29.794Z,99739.48
2023-05-13T19:05:57.889Z,99738.67
2023-05-13T19:08:34.871Z,99740.91
2023-05-13T19:11:05.992Z,99737.66
2023-05-13T19:13:46.039Z,99744.13
2023-05-13T19:16:15.891Z,99742.36
2023-05-13T19:18:43.763Z,99743.08
2023-05-13T19:21:12.083Z,99743.11
2023-05-13T19:23:39.888Z,99744.58
2023-05-13T19:26:08.273Z,99746.10
2023-05-13T19:28:37.803Z,99746.12
2023-05-13T19:31:06.230Z,99746.20
2023-05-13T19:33:37.114Z,99747.16
2023-05-13T19:36:06.024Z,99751.35
2023-05-13T19:38:35.406Z,99755.01
2023-05-13T19:41:14.060Z,99758.45
2023-05-13T19:43:47.311Z,99762.13
2023-05-13T19:46:21.384Z,99762.70
2023-05-13T19:48:49.457Z,99764.23
2023-05-13T19:51:18.171Z,99766.30
2023-05-13T19:53:46.081Z,99766.02
2023-05-13T19:56:23.131Z,99767.91
2023-05-13T19:58:50.981Z,99769.20
2023-05-13T20:01:19.320Z,99764.81
2023-05-13T20:03:47.722Z,99763.17
2023-05-13T20:06:19.137Z,99761.87
2023-05-13T20:08:47.277Z,99761.36
2023-05-13T20:11:15.037Z,99763.17
2023-05-13T20:13:43.659Z,99766.02
2023-05-13T20:16:11.948Z,99764.55
2023-05-13T20:18:43.068Z,99761.61
2023-05-13T20:21:10.943Z,99763.23
2023-05-13T20:23:41.680Z,99765.41
2023-05-13T20:26:10.106Z,99761.08
2023-05-13T20:28:45.832Z,99760.83
2023-05-13T20:31:18.240Z,99759.16
2023-05-13T20:33:46.237Z,99756.17
2023-05-13T20:36:13.957Z,99751.68
2023-05-13T20:38:42.401Z,99755.30
2023-05-13T20:41:11.304Z,99753.95
2023-05-13T20:43:47.045Z,99753.45
2023-05-13T20:46:17.085Z,99749.84
2023-05-13T20:48:45.770Z,99749.38
2023-05-13T20:51:14.049Z,99751.55
2023-05-13T20:53:46.503Z,99751.64
2023-05-13T20:56:14.257Z,99749.95
2023-05-13T20:58:41.996Z,99748.83
2023-05-13T21:01:10.208Z,99750.97
2023-05-13T21:03:38.499Z,99752.05
2023-05-13T21:06:06.317Z,99752.09
2023-05-13T21:08:36.961Z,99753.57
2023-05-13T21:11:06.491Z,99753.27
2023-05-13T21:13:34.816Z,99752.36
2023-05-13T21:16:06.557Z,99750.85
2023-05-13T21:18:34.947Z,99752.63
2023-05-13T21:21:08.482Z,99754.08
2023-05-13T21:23:37.167Z,99755.34
2023-05-13T21:26:09.193Z,99754.20
2023-05-13T21:28:37.720Z,99756.27
2023-05-13T21:31:09.280Z,99754.13
2023-05-13T21:33:37.269Z,99757.83
2023-05-13T21:36:07.610Z,99755.17
2023-05-13T21:38:35.415Z,99757.70
2023-05-13T21:41:04.049Z,99756.97
2023-05-13T21:43:31.844Z,99754.44
2023-05-13T21:46:03.506Z,99753.60
2023-05-13T21:48:31.284Z,99754.30
2023-05-13T21:50:59.110Z,99751.55
2023-05-13T21:53:27.080Z,99753.30
2023-05-13T21:55:56.731Z,99749.09
2023-05-13T21:58:24.699Z,99746.07
2023-05-13T22:00:53.072Z,99748.69
2023-05-13T22:03:21.111Z,99749.27
2023-05-13T22:05:48.855Z,99749.20
2023-05-13T22:08:16.663Z,99746.15
2023-05-13T22:10:44.596Z,99742.75
2023-05-13T22:13:12.376Z,99742.83
2023-05-13T22:15:40.227Z,99740.86
2023-05-13T22:18:10.944Z,99741.02
2023-05-13T22:20:38.868Z,99740.38
2023-05-13T22:23:07.225Z,99748.02
2023-05-13T22:25:37.860Z,99747.64
2023-05-13T22:28:06.205Z,99743.70
2023-05-13T22:30:33.990Z,99738.08
2023-05-13T22:33:01.937Z,99740.84
2023-05-13T22:35:29.724Z,99743.42
2023-05-13T22:37:57.444Z,99741.83
2023-05-13T22:41:01.779Z,99741.70
2023-05-13T22:43:30.102Z,99738.19
2023-05-13T22:45:58.127Z,99735.26
2023-05-13T22:48:26.911Z,99739.75
2023-05-13T22:50:57.163Z,99737.45
2023-05-13T22:53:25.293Z,99737.56
2023-05-13T22:55:53.806Z,99738.24
2023-05-13T22:58:22.538Z,99736.83
2023-05-13T23:00:50.938Z,99741.39
2023-05-13T23:03:19.088Z,99740.95
2023-05-13T23:05:46.814Z,99738.48
2023-05-13T23:08:14.637Z,99735.92
2023-05-13T23:10:42.501Z,99732.21
2023-05-13T23:13:10.280Z,99729.31
2023-05-13T23:15:38.136Z,99729.58
2023-05-13T23:18:06.058Z,99735.38
2023-05-13T23:20:33.949Z,99734.66
2023-05-13T23:23:01.629Z,99737.68
2023-05-13T23:25:29.534Z,99737.38
2023-05-13T23:27:57.918Z,99735.00
2023-05-13T23:30:25.946Z,99735.08
2023-05-13T23:32:53.896Z,99735.66
2023-05-13T23:35:21.665Z,99733.90
2023-05-13T23:37:49.410Z,99733.39
2023-05-13T23:40:17.477Z,99734.67
2023-05-13T23:42:45.660Z,99730.65
2023-05-13T23:45:13.403Z,99730.50
2023-05-13T23:47:41.185Z,99733.39
2023-05-13T23:50:09.672Z,99731.90
2023-05-13T23:52:37.442Z,99732.93
2023-05-13T23:55:06.128Z,99736.98
2023-05-13T23:57:34.392Z,99732.13
